Back to top

Boise, ID weather

Boise Air Terminal/Gowen Field, Boise, ID: 11/16/2019 17:53
Visibility10 statute milesclear sky
View 7-Day Forecast
Area Summary
Sky/CloudsSky Clear
Weather [last 24 hours]None [rain began 21:02 ended 21:12 ]
Pressure30.3 in.Hg (1026 hPa)
Dew Point28.9 °F (-1.7 °C)
Relative Humidity47.3 %
Last 24-Hour Precip.Trace
Reading TimePrecipitation
6-hr ending 11/15@22:53Trace
Temperature48 °F (8.9 °C)red thermometer
Wind Chill45.4 °F (7.46 °C)
Reading TimeMinimum to Maximum Temperature
6-hr ending 11/16@16:5346.9 °F to 54 °F (8.3 °C to 12.2 °C)
6-hr ending 11/16@10:5336 °F to 46.9 °F (2.2 °C to 8.3 °C)
6-hr ending 11/16@04:5342.1 °F to 46 °F (5.6 °C to 7.8 °C)
6-hr ending 11/15@22:5345 °F to 55.9 °F (7.2 °C to 13.3 °C)
24-hr ending 11/15@23:5334 °F to 60.1 °F (1.1 °C to 15.6 °C)
Wind5.75 MPH (5 KT) green arrow pointing 315 degrees
Wind FromNorthwest (320 Degrees)
Twilight Begins07:08Sunshine Yesterday
Sunrise07:39N/A
Sunset17:20
Twilight Ends17:51
METARKBOI 170053Z 32005KT 10SM CLR 09/M02 A3030 RMK AO2 SLP266 T00891017
Tags: